Aérodrome :
LOGIN :

S'inscrire | Disclaimer

   EN    FR    IT 

 










Légende :    VFR   VFR Marginal   IFR   IFR Intensif   IFR Très Intensif
Visi : 
Plafond : 
>= 8 km
>= 3000ft
5 à 8 km
1000 à 3000 ft
1500m à 5 km
500 à 1000 ft
800 à 1500m
200 à 500 ft
< 800m
< 200 ft
Symboles :   Orages  Brouillard  Fortes neiges  Fortes précipitations  Vent > 20 kt
SIGMETs :   Divers  Orages  Givrage  Turbulence  Onde Orograph.  Cendres Volcan.







- Altitude de l'aérodrome : 436 ft
- Code IATA : ANG
- Voir les cartes d'approche


LFBU - Angoulême Brie Champniers

DERNIER METAR :
  • 191100Z AUTO 16003KT 130V200 9999 BKN023 BKN031 BKN120 10/06 Q1023 TEMPO BKN010

METARs EXPIRÉS :
  • 191030Z AUTO 16003KT 9999 OVC021 09/06 Q1023 TEMPO BKN010
  • 191000Z AUTO 16003KT 130V220 9999 OVC020 08/05 Q1023 TEMPO BKN010
  • 190930Z AUTO 15004KT 120V190 9999 OVC022 08/05 Q1023 TEMPO BKN010
  • 190900Z AUTO VRB02KT 9999 BKN022/// OVC033/// ///TCU 07/05 Q1023 TEMPO BKN010
  • 190830Z AUTO VRB03KT 9999 -RA BKN032 BKN054 BKN068 07/05 Q1022 TEMPO BKN010
  • 190800Z AUTO 15001KT 9999 OVC031 06/06 Q1022 TEMPO 4000 BR BKN010

TAF AMD TAF LFBU
Valide du 19 à 06h jusqu'au 20 à 06h UTC


190640Z 1906/2006 15005KT 9999 BKN030
TEMPO 1906/1912 BKN010
PROB30
TEMPO 1906/1909 4000 BR
Pas de NOTAMs connus pour ce terrain.
1 SIGMET publié pour la FIR Bordeaux (LFBB) :
 
Turbulence forte
LFBB SIGMET 2 VALID 190800/191200 LFPW
LFBB BORDEAUX FIR/UIR SEV TURB FCST NW OF LINE N4330 W00145 - N4715 E00130 FL200/300 STNR NC=



MET'MAP, la Météo Aéronautique d'un coup d'oeil ! - Copyright ORBIFLY Décembre 2007 - Disclaimer

ORBIFLY MET'MAP TEAM :

Programmation & Développement : Alexandra Zaïnal
Conception & Développement : Baudouin d'Aumeries
Co-Programmation & Développement : Marc-Olivier Méhu
Soutien technique & logistique : Manuel Goepfert

Contact : metmap@orbifly.com




SOURCES & CREDITS :

   NOAA